Flight Track Log - Related Links

Times and Time Zones

All times are in EDT time to prevent confusion due to time zone crossing. See the N569SC flight status page for this flight to view local times or setup timezone preferences in your user account.

Time Position Orientation Groundspeed Altitude Reporting Facility
EDT Latitude Longitude Course Direction KTS MPH feet Rate Location/Type
Tue 05:28:19 PM 36.1744 -80.4378 321° Northwest 269 310 8,800  Level Atlanta Center
Tue 05:29:00 PM 36.5265 -80.7265 321° Northwest  Level FlightAware Approximate
Tue 05:29:19 PM 36.2386 -80.4967 323° Northwest 269 310 11,700  Level Atlanta Center
Tue 05:30:00 PM 36.5892 -80.8091 318° Northwest  Level FlightAware Approximate
Tue 05:30:19 PM 36.3178 -80.5628 326° Northwest 301 346 15,400  Level Atlanta Center
Tue 05:31:00 PM 36.6596 -80.8895 317° Northwest  Level FlightAware Approximate
Tue 05:31:19 PM 36.3906 -80.6267 325° Northwest 309 356 17,800  Level Atlanta Center
Tue 05:32:00 PM 36.7312 -80.9682 315° West  Level FlightAware Approximate
Tue 05:32:19 PM 36.4631 -80.6906 325° Northwest 321 369 20,100  Level Atlanta Center
Tue 05:33:00 PM 36.8003 -81.0503 321° Northwest  Level FlightAware Approximate
Tue 05:33:19 PM 36.5419 -80.7572 326° Northwest 331 381 22,500  Level Atlanta Center
Tue 05:34:19 PM 36.6169 -80.8342 321° Northwest 337 388 24,900 2,250 Climbing Atlanta Center
Tue 05:35:19 PM 36.6881 -80.9142 318° Northwest 345 397 27,000 1,950 Climbing Atlanta Center
Tue 05:36:19 PM 36.7608 -80.9969 318° Northwest 355 409 28,800 1,700 Climbing Atlanta Center
Tue 05:37:19 PM 36.8256 -81.0772 315° West 361 415 30,400 1,550 Climbing Atlanta Center
Tue 05:38:19 PM 36.9025 -81.1653 318° Northwest 367 422 31,900 1,300 Climbing Atlanta Center
Tue 05:39:19 PM 36.9903 -81.2661 317° Northwest 374 430 33,000 1,000 Climbing Atlanta Center
Tue 05:40:19 PM 37.0800 -81.3644 319° Northwest 408 470 33,900 675 Climbing Atlanta Center
Tue 05:41:59 PM 37.2186 -81.5222 318° Northwest 400 460 34,800 778 Climbing Indianapolis Center
Tue 05:43:01 PM 37.2992 -81.6150 318° Northwest 393 452 36,000 871 Climbing Indianapolis Center
Tue 05:44:03 PM 37.3872 -81.7011 322° Northwest 403 464 36,600 1,452 Climbing Indianapolis Center
Tue 05:45:05 PM 37.4797 -81.7731 328° Northwest 392 451 39,000 1,645 Climbing Indianapolis Center
Tue 05:46:07 PM 37.5525 -81.8608 316° Northwest 370 426 40,000 484 Climbing Indianapolis Center
Tue 05:47:09 PM 37.6422 -81.9692 316° Northwest 380 437 40,000 48 Level Indianapolis Center
Tue 05:48:11 PM 37.7233 -82.0644 317° Northwest 393 452 40,100 581 Climbing Indianapolis Center
Tue 05:49:13 PM 37.8019 -82.1583 317° Northwest 392 451 41,200 1,161 Climbing Indianapolis Center
Tue 05:50:15 PM 37.8775 -82.2500 316° Northwest 380 437 42,500 871 Climbing Indianapolis Center
Tue 05:51:17 PM 37.9508 -82.3378 317° Northwest 365 420 43,000 242 Climbing Indianapolis Center
Tue 05:52:19 PM 38.0386 -82.4425 317° Northwest 370 426 43,000 194 Level Indianapolis Center
Tue 05:53:21 PM 38.1131 -82.5333 316° Northwest 370 426 43,400 435 Climbing Indianapolis Center
Tue 05:54:23 PM 38.1894 -82.6264 316° Northwest 378 435 43,900 484 Climbing Indianapolis Center
Tue 05:55:25 PM 38.2644 -82.7175 316° Northwest 375 432 44,400 432 Climbing Indianapolis Center
Tue 05:56:28 PM 38.3392 -82.8078 317° Northwest 371 427 44,800 288 Climbing Indianapolis Center
Tue 05:57:30 PM 38.4258 -82.9125 317° Northwest 367 422 45,000 97 Climbing Indianapolis Center
Tue 05:58:32 PM 38.5011 -83.0056 316° Northwest 376 433 45,000  Level Indianapolis Center
Tue 05:59:34 PM 38.5783 -83.1003 316° Northwest 383 441 45,000  Level Indianapolis Center
Tue 06:00:36 PM 38.6614 -83.2031 316° Northwest 387 445 45,000  Level Indianapolis Center
Tue 06:01:38 PM 38.7403 -83.2994 316° Northwest 387 445 45,000  Level Indianapolis Center
Tue 06:02:40 PM 38.8189 -83.3972 316° Northwest 387 445 45,000  Level Indianapolis Center
Tue 06:03:42 PM 38.8950 -83.4944 315° West 385 443 45,000  Level Indianapolis Center
Tue 06:04:44 PM 38.9731 -83.5900 316° Northwest 385 443 45,000  Level Indianapolis Center
Tue 06:05:46 PM 39.0492 -83.6842 316° Northwest 377 434 45,000  Level Indianapolis Center
Tue 06:06:48 PM 39.1253 -83.7808 315° West 379 436 45,000  Level Indianapolis Center
Tue 06:07:50 PM 39.2019 -83.8758 316° Northwest 378 435 45,000  Level Indianapolis Center
Tue 06:08:52 PM 39.2897 -83.9881 315° West 376 433 45,000  Level Indianapolis Center
Tue 06:09:54 PM 39.3647 -84.0817 316° Northwest 372 428 45,000  Level Indianapolis Center
Tue 06:10:56 PM 39.4381 -84.1769 315° West 368 423 45,000  Level Indianapolis Center
Tue 06:11:58 PM 39.5139 -84.2728 316° Northwest 374 430 45,000  Level Indianapolis Center
Tue 06:13:00 PM 39.5878 -84.3675 315° West 371 427 45,000  Level Indianapolis Center
Tue 06:14:02 PM 39.6628 -84.4619 316° Northwest 372 428 45,000  Level Indianapolis Center
Tue 06:15:04 PM 39.7350 -84.5569 315° West 366 421 45,000  Level Indianapolis Center
Tue 06:16:06 PM 39.8097 -84.6528 315° West 371 427 45,000  Level Indianapolis Center
Tue 06:17:08 PM 39.8964 -84.7642 315° West 371 427 45,000  Level Indianapolis Center
Tue 06:18:10 PM 39.9692 -84.8606 315° West 369 425 45,000  Level Indianapolis Center
Tue 06:19:13 PM 40.0353 -84.9461 315° West 369 425 45,000  Level Indianapolis Center
Tue 06:20:15 PM 40.1203 -85.0569 315° West 368 423 45,000  Level Indianapolis Center
Tue 06:21:17 PM 40.1933 -85.1528 315° West 369 425 45,000  Level Indianapolis Center
Tue 06:22:19 PM 40.2664 -85.2483 315° West 370 426 45,000  Level Indianapolis Center
Tue 06:23:21 PM 40.3389 -85.3442 315° West 370 426 45,000  Level Indianapolis Center
Tue 06:23:40 PM 40.3628 -85.3756 315° West 371 427 45,000  Level Chicago Center
Tue 06:24:42 PM 40.4361 -85.4731 315° West 373 429 45,000  Level Chicago Center
Tue 06:25:44 PM 40.5094 -85.5706 315° West 374 430 45,000  Level Chicago Center
Tue 06:26:46 PM 40.5958 -85.6858 315° West 378 435 45,000  Level Chicago Center
Tue 06:27:48 PM 40.6692 -85.7842 315° West 377 434 45,000  Level Chicago Center
Tue 06:28:50 PM 40.7364 -85.8764 314° West 375 432 45,000  Level Chicago Center
Tue 06:29:52 PM 40.8097 -85.9767 314° West 377 434 45,000  Level Chicago Center
Tue 06:30:55 PM 40.8842 -86.0767 315° West 380 437 45,000  Level Chicago Center
Tue 06:31:57 PM 40.9714 -86.1953 314° West 375 432 45,000  Level Chicago Center
Tue 06:32:59 PM 41.0439 -86.2958 314° West 378 435 45,000  Level Chicago Center
Tue 06:34:01 PM 41.1183 -86.3958 315° West 378 435 45,000 -97 Level Chicago Center
Tue 06:35:03 PM 41.1900 -86.4969 313° West 376 433 44,800 -532 Descending Chicago Center
Tue 06:36:05 PM 41.2650 -86.6011 314° West 387 445 43,900 -871 Descending Chicago Center
Tue 06:37:07 PM 41.3464 -86.7114 315° West 414 476 43,000 -1,065 Descending Chicago Center
Tue 06:38:09 PM 41.4453 -86.8492 314° West 422 486 41,700 -1,161 Descending Chicago Center
Tue 06:39:11 PM 41.5244 -86.9603 314° West 420 483 40,600 -1,258 Descending Chicago Center
Tue 06:40:13 PM 41.6050 -87.0722 314° West 420 483 39,100 -1,452 Descending Chicago Center
Tue 06:41:15 PM 41.6836 -87.1842 313° West 420 483 37,600 -1,452 Descending Chicago Center
Tue 06:42:17 PM 41.7636 -87.2950 314° West 417 480 36,100 -1,597 Descending Chicago Center
Tue 06:43:19 PM 41.8553 -87.4264 313° West 410 472 34,300 -1,500 Descending Chicago Center
Tue 06:44:21 PM 41.9292 -87.5328 313° West 400 460 33,000 -1,500 Descending Chicago Center
Tue 06:45:23 PM 42.0044 -87.6389 314° West 398 458 31,200 -1,597 Descending Chicago Center
Tue 06:46:25 PM 42.0769 -87.7461 312° West 393 452 29,700 -1,440 Descending Chicago Center
Tue 06:47:28 PM 42.1503 -87.8494 314° West 387 445 28,200 -1,632 Descending Chicago Center
Tue 06:48:30 PM 42.2381 -87.9750 313° West 388 447 26,300 -1,645 Descending Chicago Center
Tue 06:49:32 PM 42.3089 -88.0822 312° West 386 444 24,800 -1,113 Descending Chicago Center
Tue 06:50:34 PM 42.3822 -88.1931 312° West 378 435 24,000 -919 Descending Chicago Center
Tue 06:51:36 PM 42.4492 -88.2903 313° West 356 410 22,900 -1,452 Descending Chicago Center
Tue 06:52:38 PM 42.5153 -88.3892 312° West 353 406 21,000 -1,887 Descending Chicago Center
Tue 06:53:40 PM 42.5794 -88.4881 311° West 350 403 19,000 -2,129 Descending Chicago Center
Tue 06:54:42 PM 42.6531 -88.5983 312° West 337 388 16,600 -2,032 Descending Chicago Center
Tue 06:55:44 PM 42.7114 -88.6858 312° West 316 364 14,800 -1,742 Descending Chicago Center
Tue 06:56:46 PM 42.7653 -88.7667 312° West 292 336 13,000 -1,742 Descending Chicago Center
Tue 06:57:48 PM 42.8167 -88.8453 312° West 279 321 11,200 -1,694 Descending Chicago Center
Tue 06:58:50 PM 42.8692 -88.9222 313° West 276 318 9,500 -1,694 Descending Chicago Center
Tue 06:59:52 PM 42.9272 -88.9892 320° Northwest 279 321 7,700 -1,645 Descending Chicago Center
Tue 07:00:54 PM 43.0122 -89.0414 336° Northwest 286 329 6,100 -1,403 Descending Chicago Center
Tue 07:01:56 PM 43.0656 -89.1161 314° West 283 326 4,800 -1,355 Descending Chicago Center
Tue 07:02:58 PM 43.1119 -89.1950 309° West 273 314 3,300 -1,161 Descending Chicago Center
Tue 07:04:00 PM 43.1550 -89.2714 308° West 262 302 2,400 -968 Descending Chicago Center
Tue 07:05:02 PM 43.1653 -89.3178 287° West 179 206 1,300 -1,065 Descending Chicago Center
Tue 07:07:00 PM 43.1333 -89.3333 312° West  Level FlightAware Approximate

Login

Don't have an account? Register now (free) for customized features, flight alerts, and more!